Current Weather

Kamishly

Kamishly, Syria (OSKL)

Report from: Friday, August 19, 2022 4:00 AM UTC
Current time: Friday, August 19, 2022 4:31 AM UTC

Nearby weather
Weather history
Weather forecast

Temperature25.0°C (77.0°F)
Dew point4.0°C (39.2°F)
Winds 4 kts (2.1 m/s, 4.6 mph) Northeast (40°)
Clouds Sky clear
Altimeter29.59 in.Hg (1002 mB)
Relative humidity26 %
Density altitude1,659 ft. (506 m)
Remarks Ceiling and visibility OK
Flight conditions Visual Meteorological Conditions
Raw dataOSKL 190400Z 04004KT CAVOK 25/04 Q1002
An unhandled exception has occurred. See browser dev tools for details. Reload 🗙